Time;durP1;ratioP1;P1;durP2;ratioP2;P2;SDS_P1;SDS_P2;PMS_P1;PMS_P2;Temp;Humidity;BMP_temperature;BMP_pressure;BME280_temperature;BME280_humidity;BME280_pressure;Samples;Min_cycle;Max_cycle;Signal;HPM_P1;HPM_P2
2021/08/06 00:00:11;;;;;;;3.25;1.10;;;16.30;99.90;;;;;;10524088;28;20048;-63
2021/08/06 00:05:13;;;;;;;5.63;1.23;;;16.30;99.90;;;;;;10536195;28;20052;-63
2021/08/06 00:10:14;;;;;;;3.80;1.08;;;16.40;99.90;;;;;;10522118;28;20051;-63
2021/08/06 00:15:16;;;;;;;1.67;0.80;;;16.40;99.90;;;;;;10532237;28;20129;-63
2021/08/06 00:20:18;;;;;;;1.80;0.95;;;16.40;99.90;;;;;;10531289;28;20056;-63
2021/08/06 00:25:19;;;;;;;4.32;1.38;;;16.30;99.90;;;;;;10520754;28;20044;-63
2021/08/06 00:30:21;;;;;;;6.68;0.90;;;16.30;99.90;;;;;;10522228;28;20572;-63
2021/08/06 00:35:23;;;;;;;1.80;0.98;;;16.20;99.90;;;;;;10523338;28;20048;-63
2021/08/06 00:40:25;;;;;;;5.50;1.35;;;16.20;99.90;;;;;;10529128;28;20903;-63
2021/08/06 00:45:26;;;;;;;2.35;1.20;;;16.10;99.90;;;;;;10528006;28;20041;-63
2021/08/06 00:50:28;;;;;;;3.95;1.20;;;16.10;99.90;;;;;;10524893;28;20060;-63
2021/08/06 00:55:30;;;;;;;5.50;1.42;;;16.10;99.90;;;;;;10534006;28;20052;-63
2021/08/06 01:00:31;;;;;;;3.72;1.40;;;16.00;99.90;;;;;;10524076;28;20097;-63
2021/08/06 01:05:40;;;;;;;2.17;1.10;;;16.00;99.90;;;;;;10523859;28;20062;-63
2021/08/06 01:10:54;;;;;;;6.32;1.27;;;15.90;99.90;;;;;;10505186;28;20083;-63
2021/08/06 01:16:00;;;;;;;4.07;1.40;;;15.90;99.90;;;;;;10526532;28;20465;-63
2021/08/06 01:21:09;;;;;;;3.45;1.35;;;15.80;99.90;;;;;;10522247;28;20079;-63
2021/08/06 01:26:19;;;;;;;4.57;1.48;;;15.80;99.90;;;;;;10522877;28;20101;-63
2021/08/06 01:31:29;;;;;;;5.10;1.92;;;15.80;99.90;;;;;;10524397;28;20044;-63
2021/08/06 01:36:30;;;;;;;2.55;1.52;;;15.70;99.90;;;;;;10530139;28;20036;-63
2021/08/06 01:41:58;;;;;;;3.70;1.90;;;15.70;99.90;;;;;;10524330;28;20039;-63
2021/08/06 01:47:08;;;;;;;5.20;1.73;;;15.70;99.90;;;;;;10519956;28;20048;-63
2021/08/06 01:52:13;;;;;;;6.90;2.53;;;15.60;99.90;;;;;;10518291;28;20104;-64
2021/08/06 01:57:15;;;;;;;8.63;2.28;;;15.60;99.90;;;;;;10528838;28;20199;-63
2021/08/06 02:02:17;;;;;;;3.80;2.45;;;15.50;99.90;;;;;;10523339;28;20371;-63
2021/08/06 02:07:19;;;;;;;6.57;2.33;;;15.50;99.90;;;;;;10526740;28;20082;-63
2021/08/06 02:12:21;;;;;;;6.60;3.22;;;15.50;99.90;;;;;;10508732;28;20105;-63
2021/08/06 02:17:24;;;;;;;9.60;2.90;;;15.40;99.90;;;;;;10531539;28;20052;-63
2021/08/06 02:22:27;;;;;;;8.35;3.00;;;15.40;99.90;;;;;;10527870;28;20093;-63
2021/08/06 02:27:30;;;;;;;9.90;3.42;;;15.40;99.90;;;;;;10529131;28;20051;-63
2021/08/06 02:32:32;;;;;;;7.60;3.85;;;15.40;99.90;;;;;;10523836;28;20117;-63
2021/08/06 02:37:39;;;;;;;6.20;3.30;;;15.40;99.90;;;;;;10505589;28;20044;-63
2021/08/06 02:42:41;;;;;;;8.60;3.72;;;15.40;99.90;;;;;;10517855;28;20047;-63
2021/08/06 02:47:43;;;;;;;7.55;3.55;;;15.40;99.90;;;;;;10501585;28;20072;-63
2021/08/06 02:52:45;;;;;;;9.02;3.55;;;15.30;99.90;;;;;;10508911;28;20036;-63
2021/08/06 02:57:48;;;;;;;6.57;3.03;;;15.20;99.90;;;;;;10527198;28;20072;-63
2021/08/06 03:02:50;;;;;;;10.43;3.47;;;15.20;99.90;;;;;;10531438;28;20077;-63
2021/08/06 03:07:53;;;;;;;7.75;3.15;;;15.30;99.90;;;;;;10530442;28;20079;-63
2021/08/06 03:12:54;;;;;;;5.30;2.78;;;15.30;99.90;;;;;;10531906;28;20052;-63
2021/08/06 03:17:56;;;;;;;8.60;4.20;;;15.30;99.90;;;;;;10531070;28;20646;-63
2021/08/06 03:22:58;;;;;;;6.05;2.88;;;15.40;99.90;;;;;;10528665;28;20097;-63
2021/08/06 03:27:59;;;;;;;8.80;2.90;;;15.40;99.90;;;;;;10523546;28;20109;-63
2021/08/06 03:33:01;;;;;;;7.82;3.45;;;15.40;99.90;;;;;;10535695;28;20066;-63
2021/08/06 03:38:13;;;;;;;8.70;3.40;;;15.50;99.90;;;;;;10521067;28;20130;-63
2021/08/06 03:43:15;;;;;;;8.90;4.15;;;15.60;99.90;;;;;;10528482;28;20463;-63
2021/08/06 03:48:16;;;;;;;9.68;3.75;;;15.80;99.90;;;;;;10524488;28;20100;-64
2021/08/06 03:53:18;;;;;;;10.80;4.68;;;15.90;99.90;;;;;;10524102;28;20576;-63
2021/08/06 03:58:19;;;;;;;7.03;3.53;;;16.00;99.90;;;;;;10531489;28;20094;-64
2021/08/06 04:03:21;;;;;;;8.95;4.05;;;16.00;99.90;;;;;;10532282;28;20133;-65
2021/08/06 04:08:24;;;;;;;9.60;4.43;;;16.00;99.90;;;;;;10529592;28;20055;-64
2021/08/06 04:13:26;;;;;;;6.80;3.17;;;16.10;99.90;;;;;;10532201;28;20044;-64
2021/08/06 04:18:28;;;;;;;7.38;3.28;;;15.90;99.90;;;;;;10533216;28;20051;-65
2021/08/06 04:23:29;;;;;;;8.98;3.45;;;15.80;99.90;;;;;;10529476;28;22245;-65
2021/08/06 04:28:31;;;;;;;7.68;3.25;;;15.90;99.90;;;;;;10514068;28;20122;-65
2021/08/06 04:33:33;;;;;;;7.60;3.28;;;15.90;99.90;;;;;;10524018;28;20064;-65
2021/08/06 04:38:35;;;;;;;10.82;3.50;;;16.00;99.90;;;;;;10526558;28;20052;-66
2021/08/06 04:43:36;;;;;;;7.95;3.22;;;16.00;99.90;;;;;;10532789;28;20043;-68
2021/08/06 04:48:38;;;;;;;8.07;2.75;;;16.10;99.90;;;;;;10534009;28;20097;-68
2021/08/06 04:53:40;;;;;;;6.70;3.08;;;16.00;99.90;;;;;;10523103;28;20072;-68
2021/08/06 04:58:41;;;;;;;10.45;3.47;;;16.10;99.90;;;;;;10524994;28;20133;-68
2021/08/06 05:03:43;;;;;;;5.88;2.28;;;16.10;99.90;;;;;;10525519;28;20109;-68
2021/08/06 05:08:49;;;;;;;7.80;2.40;;;16.00;99.90;;;;;;10527296;28;20047;-68
2021/08/06 05:13:50;;;;;;;8.90;2.85;;;16.00;99.90;;;;;;10527870;28;20055;-68
2021/08/06 05:18:52;;;;;;;6.93;2.40;;;16.00;99.90;;;;;;10519126;28;20082;-68
2021/08/06 05:23:54;;;;;;;9.82;2.10;;;16.10;99.90;;;;;;10518737;28;20904;-68
2021/08/06 05:28:55;;;;;;;7.68;2.33;;;16.20;99.90;;;;;;10531729;28;20044;-68
2021/08/06 05:33:57;;;;;;;3.95;1.92;;;16.30;99.90;;;;;;10523313;28;20101;-68
2021/08/06 05:39:00;;;;;;;8.95;3.22;;;16.30;99.90;;;;;;10527106;28;20526;-68
2021/08/06 05:44:01;;;;;;;5.72;2.40;;;16.30;99.90;;;;;;10521544;28;20052;-68
2021/08/06 05:49:03;;;;;;;6.00;2.83;;;16.30;99.90;;;;;;10525199;28;20093;-68
2021/08/06 05:54:05;;;;;;;10.15;3.17;;;16.30;99.90;;;;;;10530468;28;20113;-68
2021/08/06 05:59:10;;;;;;;6.13;3.33;;;16.30;99.90;;;;;;10517460;28;20118;-68
2021/08/06 06:04:11;;;;;;;5.40;3.03;;;16.20;99.90;;;;;;10524894;28;20556;-68
2021/08/06 06:09:13;;;;;;;9.18;3.33;;;16.10;99.90;;;;;;10522441;28;20051;-68
2021/08/06 06:14:15;;;;;;;8.40;3.42;;;16.10;99.90;;;;;;10519255;28;20052;-68
2021/08/06 06:19:17;;;;;;;7.97;3.60;;;16.20;99.90;;;;;;10523434;28;20044;-67
2021/08/06 06:24:19;;;;;;;5.53;2.63;;;16.30;99.90;;;;;;10519294;28;20055;-68
2021/08/06 06:29:20;;;;;;;3.35;2.33;;;16.20;99.90;;;;;;10519688;28;20087;-68
2021/08/06 06:34:22;;;;;;;7.07;3.63;;;16.10;99.90;;;;;;10524102;28;20052;-68
2021/08/06 06:39:24;;;;;;;4.03;2.72;;;16.30;99.90;;;;;;10526121;28;20101;-68
2021/08/06 06:44:25;;;;;;;7.40;3.15;;;16.30;99.90;;;;;;10530668;28;20552;-68
2021/08/06 06:49:27;;;;;;;7.30;3.13;;;16.40;99.90;;;;;;10528671;28;20048;-68
2021/08/06 06:54:29;;;;;;;4.07;3.45;;;16.70;99.90;;;;;;10514029;28;20129;-68
2021/08/06 06:59:30;;;;;;;7.38;3.60;;;16.80;99.90;;;;;;10530526;28;20419;-68
2021/08/06 07:04:32;;;;;;;5.03;3.08;;;16.80;99.90;;;;;;10521276;28;20359;-68
2021/08/06 07:09:33;;;;;;;4.15;3.55;;;16.80;99.90;;;;;;10525980;28;20044;-68
2021/08/06 07:14:35;;;;;;;6.30;2.17;;;16.80;99.90;;;;;;10525441;28;20040;-69
2021/08/06 07:19:37;;;;;;;3.83;1.92;;;16.90;99.90;;;;;;10527382;28;20432;-68
2021/08/06 07:24:39;;;;;;;3.20;2.10;;;16.90;99.90;;;;;;10522644;28;20486;-68
2021/08/06 07:29:41;;;;;;;3.83;2.38;;;16.80;99.90;;;;;;10521151;28;20161;-68
2021/08/06 07:34:43;;;;;;;2.83;2.10;;;16.80;99.90;;;;;;10524259;28;20067;-68
2021/08/06 07:39:44;;;;;;;2.22;2.00;;;16.80;99.90;;;;;;10524170;28;20083;-69
2021/08/06 07:44:46;;;;;;;5.20;3.08;;;16.90;99.90;;;;;;10512374;28;20543;-68
2021/08/06 07:49:48;;;;;;;4.70;3.08;;;16.90;99.90;;;;;;10524600;28;20051;-68
2021/08/06 07:54:50;;;;;;;3.42;2.17;;;17.00;99.90;;;;;;10520081;28;20051;-68
2021/08/06 07:59:52;;;;;;;5.43;3.00;;;16.90;99.90;;;;;;10531560;28;20074;-68
2021/08/06 08:04:53;;;;;;;6.57;2.90;;;16.80;99.90;;;;;;10520790;28;20128;-68
2021/08/06 08:09:55;;;;;;;11.70;4.35;;;16.80;99.90;;;;;;10522253;28;20502;-68
2021/08/06 08:14:57;;;;;;;6.15;4.32;;;17.00;99.90;;;;;;10527214;28;20067;-67
2021/08/06 08:19:59;;;;;;;8.82;4.32;;;16.90;99.90;;;;;;10520345;28;20039;-68
2021/08/06 08:25:00;;;;;;;7.05;3.80;;;16.90;99.90;;;;;;10530119;28;20159;-68
2021/08/06 08:30:04;;;;;;;5.13;3.83;;;16.80;99.90;;;;;;10527107;28;20057;-67
2021/08/06 08:35:06;;;;;;;7.78;3.28;;;16.80;99.90;;;;;;10528633;28;20048;-67
2021/08/06 08:40:09;;;;;;;6.38;2.88;;;16.90;99.90;;;;;;10511973;28;20044;-67
2021/08/06 08:45:11;;;;;;;4.25;1.75;;;16.90;99.90;;;;;;10530734;28;20051;-67
2021/08/06 08:50:14;;;;;;;3.22;1.40;;;17.10;99.90;;;;;;10530255;28;20055;-67
2021/08/06 08:55:16;;;;;;;1.25;0.88;;;17.30;99.90;;;;;;10528767;28;20438;-68
2021/08/06 09:00:18;;;;;;;3.25;1.20;;;17.30;99.90;;;;;;10523032;28;20102;-68
2021/08/06 09:05:25;;;;;;;2.15;0.90;;;17.50;99.90;;;;;;10526509;28;20128;-68
2021/08/06 09:10:30;;;;;;;;;;;17.70;99.90;;;;;;10529242;28;20867;-68
2021/08/06 09:15:52;;;;;;;2.22;0.98;;;17.90;99.90;;;;;;10521558;28;19962;-68
2021/08/06 09:20:59;;;;;;;4.57;0.80;;;18.00;99.90;;;;;;10518725;28;20044;-69
2021/08/06 09:26:00;;;;;;;3.30;1.00;;;18.10;99.90;;;;;;10525406;28;20109;-69
2021/08/06 09:31:15;;;;;;;2.15;0.70;;;18.30;99.90;;;;;;10522997;28;20079;-69
2021/08/06 09:36:17;;;;;;;1.73;0.88;;;18.20;99.90;;;;;;10524413;28;20401;-69
2021/08/06 09:41:37;;;;;;;3.38;0.90;;;18.20;99.90;;;;;;10525481;28;20148;-69
2021/08/06 09:46:39;;;;;;;3.53;0.98;;;18.40;99.90;;;;;;10528082;28;20101;-69
2021/08/06 09:51:42;;;;;;;2.38;0.70;;;18.80;99.90;;;;;;10527779;28;20056;-69
2021/08/06 09:56:46;;;;;;;3.83;0.60;;;19.00;99.90;;;;;;10524694;28;20048;-69
2021/08/06 10:01:47;;;;;;;1.50;0.40;;;19.00;99.90;;;;;;10527571;28;20478;-68
2021/08/06 10:06:57;;;;;;;0.47;0.30;;;18.90;99.90;;;;;;10524299;28;20044;-66
2021/08/06 10:11:59;;;;;;;1.77;0.20;;;19.10;99.90;;;;;;10517423;28;20121;-66
2021/08/06 10:17:00;;;;;;;0.60;0.20;;;19.30;99.90;;;;;;10524662;28;22778;-66
2021/08/06 10:22:03;;;;;;;2.10;0.20;;;19.40;99.90;;;;;;10529884;28;20047;-67
2021/08/06 10:27:06;;;;;;;1.70;0.28;;;19.90;99.90;;;;;;10522504;28;20075;-66
2021/08/06 10:32:13;;;;;;;0.22;0.20;;;20.20;99.90;;;;;;10514978;28;20048;-66
2021/08/06 10:37:54;;;;;;;0.50;0.20;;;20.20;99.90;;;;;;10522108;28;20550;-66
2021/08/06 10:42:55;;;;;;;2.30;0.40;;;20.80;99.90;;;;;;10523852;28;20047;-67
2021/08/06 10:47:57;;;;;;;1.15;0.20;;;21.00;99.90;;;;;;10524278;28;20047;-67
2021/08/06 10:53:20;;;;;;;2.85;0.40;;;21.30;99.90;;;;;;10525370;28;20550;-67
2021/08/06 10:58:49;;;;;;;1.30;0.30;;;20.80;99.90;;;;;;10521857;28;20466;-66
2021/08/06 11:03:56;;;;;;;2.75;0.40;;;20.20;99.90;;;;;;10515532;28;20755;-66
2021/08/06 11:08:58;;;;;;;2.05;0.50;;;21.20;99.90;;;;;;10515748;28;20062;-67
2021/08/06 11:14:00;;;;;;;0.60;0.30;;;21.80;99.90;;;;;;10525900;28;20800;-67
2021/08/06 11:19:01;;;;;;;0.95;0.30;;;22.50;99.90;;;;;;10521286;28;20452;-67
2021/08/06 11:24:17;;;;;;;1.50;0.22;;;22.50;99.90;;;;;;10537493;28;20060;-67
2021/08/06 11:29:19;;;;;;;0.73;0.30;;;22.60;99.90;;;;;;10528111;28;20051;-67
2021/08/06 11:34:21;;;;;;;0.85;0.30;;;22.00;99.90;;;;;;10531336;28;20044;-68
2021/08/06 11:39:23;;;;;;;4.93;0.32;;;22.20;99.90;;;;;;10531608;28;20051;-67
2021/08/06 11:44:25;;;;;;;2.47;0.30;;;22.40;99.90;;;;;;10523299;28;20116;-67
2021/08/06 11:49:26;;;;;;;1.13;0.20;;;22.40;99.90;;;;;;10532677;28;20447;-68
2021/08/06 11:54:28;;;;;;;2.95;0.20;;;22.00;99.90;;;;;;10522863;28;20102;-67
2021/08/06 11:59:30;;;;;;;0.88;0.20;;;21.60;99.90;;;;;;10525732;28;20052;-67
2021/08/06 12:04:31;;;;;;;1.17;0.45;;;21.20;99.90;;;;;;10534781;28;20129;-67
2021/08/06 12:09:33;;;;;;;1.15;0.50;;;21.20;99.90;;;;;;10506097;28;20715;-68
2021/08/06 12:14:35;;;;;;;3.70;0.82;;;21.10;99.90;;;;;;10526555;28;20106;-67
2021/08/06 12:19:46;;;;;;;1.40;0.20;;;21.10;99.90;;;;;;10530613;28;20043;-67
2021/08/06 12:24:51;;;;;;;1.75;0.20;;;21.80;99.90;;;;;;10530404;28;20047;-67
2021/08/06 12:29:53;;;;;;;1.02;0.17;;;22.20;99.90;;;;;;10530555;28;20045;-67
2021/08/06 12:34:56;;;;;;;1.35;0.13;;;22.90;99.90;;;;;;10522381;28;20048;-68
2021/08/06 12:39:58;;;;;;;0.73;0.20;;;22.80;99.90;;;;;;10528345;28;20370;-68
2021/08/06 12:45:23;;;;;;;0.35;0.10;;;22.90;99.70;;;;;;10520369;28;20052;-68
2021/08/06 12:50:30;;;;;;;0.52;0.10;;;22.20;99.90;;;;;;10530363;28;20052;-68
2021/08/06 12:55:33;;;;;;;1.30;0.10;;;21.90;99.90;;;;;;10520912;28;20048;-68
2021/08/06 13:00:49;;;;;;;0.55;0.10;;;21.70;99.90;;;;;;10521025;28;20795;-68
2021/08/06 13:05:52;;;;;;;0.90;0.10;;;21.60;99.90;;;;;;10525334;28;20571;-67
2021/08/06 13:11:02;;;;;;;3.45;0.20;;;22.50;99.90;;;;;;10523782;28;20047;-67
2021/08/06 13:16:06;;;;;;;1.30;0.10;;;22.90;99.60;;;;;;10530632;28;20058;-68
2021/08/06 13:21:11;;;;;;;0.90;0.20;;;23.10;97.90;;;;;;10514467;28;20047;-68
2021/08/06 13:26:12;;;;;;;0.90;0.10;;;22.90;98.10;;;;;;10523913;28;20048;-67
2021/08/06 13:31:14;;;;;;;0.15;0.15;;;22.60;98.00;;;;;;10519120;28;20455;-67
2021/08/06 13:36:16;;;;;;;0.10;0.10;;;23.30;96.80;;;;;;10519252;28;20051;-67
2021/08/06 13:41:17;;;;;;;1.33;0.10;;;23.50;96.40;;;;;;10527795;28;20371;-68
2021/08/06 13:46:19;;;;;;;0.10;0.10;;;22.80;96.70;;;;;;10527274;28;20113;-69
2021/08/06 13:51:21;;;;;;;0.88;0.50;;;22.20;95.80;;;;;;10523410;28;20524;-68
2021/08/06 13:56:23;;;;;;;0.30;0.10;;;22.40;97.20;;;;;;10531639;28;20050;-69
2021/08/06 14:01:24;;;;;;;0.98;0.20;;;21.90;96.50;;;;;;10523237;28;20065;-68
2021/08/06 14:06:26;;;;;;;0.47;0.17;;;22.00;95.90;;;;;;10527967;28;20036;-68
2021/08/06 14:11:28;;;;;;;1.55;0.13;;;22.10;96.00;;;;;;10524674;28;20044;-68
2021/08/06 14:16:30;;;;;;;1.27;0.20;;;22.40;96.20;;;;;;10518057;28;20478;-68
2021/08/06 14:21:31;;;;;;;1.30;0.20;;;22.50;95.80;;;;;;10519124;28;20063;-68
2021/08/06 14:26:33;;;;;;;0.63;0.10;;;22.90;93.70;;;;;;10523297;28;20472;-69
2021/08/06 14:31:35;;;;;;;0.30;0.10;;;22.70;94.20;;;;;;10518296;28;20044;-68
2021/08/06 14:36:36;;;;;;;0.28;0.10;;;22.90;94.10;;;;;;10522010;28;20051;-69
2021/08/06 14:41:40;;;;;;;0.80;0.20;;;22.40;95.30;;;;;;10528661;28;20044;-68
2021/08/06 14:46:41;;;;;;;1.08;0.20;;;22.20;96.10;;;;;;10527066;28;20060;-68
2021/08/06 14:51:43;;;;;;;3.88;0.20;;;22.10;95.80;;;;;;10527317;28;20048;-68
2021/08/06 14:56:45;;;;;;;1.83;0.20;;;22.00;95.30;;;;;;10527188;28;20474;-68
2021/08/06 15:01:46;;;;;;;0.45;0.20;;;22.00;96.20;;;;;;10532553;28;20052;-69
2021/08/06 15:06:48;;;;;;;0.40;0.10;;;22.00;96.20;;;;;;10529747;28;20846;-68
2021/08/06 15:11:50;;;;;;;3.30;0.30;;;21.90;96.20;;;;;;10529146;28;20044;-68
2021/08/06 15:16:52;;;;;;;0.32;0.20;;;21.90;96.50;;;;;;10531771;28;20079;-68
2021/08/06 15:21:54;;;;;;;0.30;0.28;;;22.00;96.20;;;;;;10528390;28;20601;-70
2021/08/06 15:27:16;;;;;;;0.52;0.30;;;22.00;95.90;;;;;;10523710;28;20040;-68
2021/08/06 15:32:18;;;;;;;0.43;0.20;;;21.90;96.20;;;;;;10533124;28;20059;-68
2021/08/06 15:37:19;;;;;;;0.75;0.20;;;21.90;96.30;;;;;;10507854;28;20052;-68
2021/08/06 15:42:21;;;;;;;0.55;0.10;;;21.70;95.90;;;;;;10534037;28;20097;-69
2021/08/06 15:47:23;;;;;;;2.05;0.20;;;21.40;95.90;;;;;;10527451;28;20097;-69
2021/08/06 15:52:25;;;;;;;0.30;0.10;;;21.30;96.80;;;;;;10526349;28;20101;-69
2021/08/06 15:57:26;;;;;;;1.85;0.57;;;21.40;96.90;;;;;;10524018;28;20040;-68
2021/08/06 16:02:28;;;;;;;0.95;0.20;;;22.40;95.30;;;;;;10522613;28;20093;-68
2021/08/06 16:07:30;;;;;;;0.25;0.20;;;22.60;95.30;;;;;;10529188;28;20048;-69
2021/08/06 16:12:32;;;;;;;0.15;0.13;;;22.20;96.00;;;;;;10531234;28;20044;-68
2021/08/06 16:17:34;;;;;;;0.43;0.10;;;22.10;95.80;;;;;;10533470;28;20104;-69
2021/08/06 16:22:36;;;;;;;0.85;0.10;;;22.90;94.60;;;;;;10530455;28;20138;-68
2021/08/06 16:27:38;;;;;;;0.55;0.20;;;23.20;93.80;;;;;;10528080;28;20118;-62
2021/08/06 16:32:41;;;;;;;0.32;0.10;;;22.50;94.60;;;;;;10530501;28;20067;-62
2021/08/06 16:37:43;;;;;;;0.75;0.15;;;22.40;95.30;;;;;;10528517;28;20496;-62
2021/08/06 16:42:45;;;;;;;0.47;0.15;;;23.00;94.10;;;;;;10524179;28;20048;-62
2021/08/06 16:47:47;;;;;;;0.60;0.15;;;23.30;93.70;;;;;;10531051;28;20052;-62
2021/08/06 16:52:49;;;;;;;3.10;0.25;;;22.30;94.70;;;;;;10521737;28;20047;-71
2021/08/06 16:57:50;;;;;;;1.75;0.10;;;22.10;93.90;;;;;;10527400;28;20069;-69
2021/08/06 17:02:52;;;;;;;1.63;0.10;;;21.80;94.40;;;;;;10534504;28;20059;-69
2021/08/06 17:07:54;;;;;;;0.82;0.20;;;21.70;94.80;;;;;;10465923;28;20500;-68
2021/08/06 17:12:56;;;;;;;0.50;0.10;;;21.60;95.20;;;;;;10528075;28;20136;-68
2021/08/06 17:17:57;;;;;;;0.20;0.10;;;21.70;95.10;;;;;;10526441;28;20079;-68
2021/08/06 17:22:59;;;;;;;0.15;0.10;;;21.80;95.00;;;;;;10524916;28;20101;-69
2021/08/06 17:28:01;;;;;;;0.47;0.10;;;22.00;95.20;;;;;;10525572;28;20828;-69
2021/08/06 17:33:02;;;;;;;0.25;0.03;;;22.00;94.80;;;;;;10526692;28;20117;-69
2021/08/06 17:38:04;;;;;;;0.63;0.10;;;22.20;94.90;;;;;;10526082;28;20039;-69
2021/08/06 17:43:06;;;;;;;1.17;0.20;;;21.70;95.50;;;;;;10523215;28;20555;-69
2021/08/06 17:48:08;;;;;;;3.30;0.20;;;21.40;95.40;;;;;;10522610;28;20112;-68
2021/08/06 17:53:11;;;;;;;0.57;0.13;;;21.30;96.00;;;;;;10526765;28;20443;-68
2021/08/06 17:58:15;;;;;;;0.10;0.08;;;21.20;96.00;;;;;;10501482;28;20460;-68
2021/08/06 18:03:19;;;;;;;0.63;0.10;;;21.10;95.90;;;;;;10522571;28;20059;-68
2021/08/06 18:08:21;;;;;;;0.30;0.10;;;21.00;96.10;;;;;;10522094;28;20063;-68
2021/08/06 18:13:23;;;;;;;0.63;0.10;;;20.90;95.90;;;;;;10517793;28;20075;-68
2021/08/06 18:18:25;;;;;;;0.60;0.17;;;20.80;95.70;;;;;;10522228;28;20071;-69
2021/08/06 18:23:27;;;;;;;0.52;0.20;;;20.70;96.00;;;;;;10510359;28;20036;-69
2021/08/06 18:28:28;;;;;;;1.65;0.10;;;20.60;96.30;;;;;;10502211;28;20060;-69
2021/08/06 18:33:30;;;;;;;2.17;0.10;;;20.50;96.50;;;;;;10517988;28;20035;-69
2021/08/06 18:38:33;;;;;;;0.52;0.10;;;20.40;96.70;;;;;;10523944;28;20102;-68
2021/08/06 18:43:34;;;;;;;0.10;0.00;;;20.30;97.20;;;;;;10523823;28;20479;-68
2021/08/06 18:48:36;;;;;;;1.33;0.20;;;20.30;97.70;;;;;;10522841;28;20052;-68
2021/08/06 18:53:38;;;;;;;1.05;0.20;;;20.10;97.90;;;;;;10507620;28;20931;-69
2021/08/06 18:58:39;;;;;;;0.40;0.10;;;20.00;98.20;;;;;;10524808;28;20161;-69
2021/08/06 19:03:43;;;;;;;0.75;0.10;;;19.90;98.10;;;;;;10521719;28;20048;-68
2021/08/06 19:08:46;;;;;;;2.95;0.20;;;19.80;98.70;;;;;;10523498;28;20524;-68
2021/08/06 19:13:48;;;;;;;0.22;0.10;;;19.70;99.50;;;;;;10524854;28;20044;-68
2021/08/06 19:18:49;;;;;;;1.77;0.20;;;19.60;99.10;;;;;;10515716;28;20047;-68
2021/08/06 19:23:52;;;;;;;0.10;0.10;;;19.60;99.50;;;;;;10517955;28;20113;-67
2021/08/06 19:28:54;;;;;;;1.27;0.10;;;19.40;99.60;;;;;;10518015;28;20109;-67
2021/08/06 19:33:55;;;;;;;0.28;0.10;;;19.30;99.90;;;;;;10528562;28;20133;-67
2021/08/06 19:38:57;;;;;;;0.17;0.10;;;19.20;99.90;;;;;;10527341;28;20774;-67
2021/08/06 19:43:59;;;;;;;1.20;0.20;;;19.10;99.90;;;;;;10513394;28;20082;-67
2021/08/06 19:49:00;;;;;;;0.68;0.30;;;19.00;99.90;;;;;;10531186;28;20043;-67
2021/08/06 19:54:02;;;;;;;1.95;0.10;;;18.90;99.90;;;;;;10532293;28;20493;-67
2021/08/06 19:59:03;;;;;;;3.00;0.20;;;18.80;99.90;;;;;;10528711;28;20417;-67
2021/08/06 20:04:06;;;;;;;1.52;0.17;;;18.60;99.90;;;;;;10531820;28;20048;-67
2021/08/06 20:09:12;;;;;;;1.85;0.15;;;18.50;99.90;;;;;;10527130;28;20079;-67
2021/08/06 20:14:13;;;;;;;1.30;0.20;;;18.50;99.90;;;;;;10525765;28;20114;-67
2021/08/06 20:19:15;;;;;;;7.55;0.30;;;18.40;99.90;;;;;;10524459;28;20082;-67
2021/08/06 20:24:17;;;;;;;0.45;0.20;;;18.40;99.90;;;;;;10524874;28;20048;-67
2021/08/06 20:29:19;;;;;;;1.23;0.32;;;18.30;99.90;;;;;;10512336;28;20581;-67
2021/08/06 20:34:21;;;;;;;0.50;0.30;;;18.10;99.90;;;;;;10524830;28;20112;-67
2021/08/06 20:39:23;;;;;;;2.40;0.43;;;17.90;99.90;;;;;;10524965;28;20044;-67
2021/08/06 20:44:25;;;;;;;3.85;0.40;;;17.90;99.90;;;;;;10524429;28;20689;-67
2021/08/06 20:49:26;;;;;;;1.05;0.40;;;17.80;99.90;;;;;;10520463;28;20063;-67
2021/08/06 20:54:28;;;;;;;0.90;0.40;;;17.70;99.90;;;;;;10520266;28;20109;-67
2021/08/06 20:59:29;;;;;;;0.32;0.20;;;17.70;99.90;;;;;;10508833;28;20056;-67
2021/08/06 21:04:31;;;;;;;2.10;0.35;;;17.60;99.90;;;;;;10519124;28;20423;-67
2021/08/06 21:09:33;;;;;;;0.30;0.20;;;17.50;99.90;;;;;;10533273;28;20495;-68
2021/08/06 21:14:35;;;;;;;0.50;0.20;;;17.40;99.90;;;;;;10526352;28;20044;-67
2021/08/06 21:19:36;;;;;;;2.47;0.30;;;17.50;99.90;;;;;;10521879;28;20043;-67
2021/08/06 21:24:38;;;;;;;0.47;0.20;;;17.40;99.90;;;;;;10528035;28;20052;-67
2021/08/06 21:29:40;;;;;;;1.10;0.20;;;17.40;99.90;;;;;;10524819;28;20043;-67
2021/08/06 21:34:42;;;;;;;3.92;0.80;;;17.40;99.90;;;;;;10526387;28;20052;-67
2021/08/06 21:39:44;;;;;;;0.80;0.50;;;17.20;99.90;;;;;;10528740;28;20044;-67
2021/08/06 21:44:45;;;;;;;2.28;0.45;;;17.00;99.90;;;;;;10522420;28;20041;-67
2021/08/06 21:49:47;;;;;;;1.08;0.30;;;16.90;99.90;;;;;;10525392;28;20093;-67
2021/08/06 21:54:49;;;;;;;0.77;0.30;;;16.80;99.90;;;;;;10526143;28;20048;-67
2021/08/06 21:59:50;;;;;;;0.50;0.40;;;16.70;99.90;;;;;;10521982;28;20104;-67
2021/08/06 22:04:52;;;;;;;1.17;0.50;;;16.60;99.90;;;;;;10520979;28;20075;-67
2021/08/06 22:09:54;;;;;;;2.38;1.00;;;16.50;99.90;;;;;;10525992;28;20088;-67
2021/08/06 22:14:55;;;;;;;6.55;0.70;;;16.30;99.90;;;;;;10506730;28;20067;-67
2021/08/06 22:19:57;;;;;;;1.77;0.60;;;16.20;99.90;;;;;;10522526;28;20371;-67
2021/08/06 22:24:59;;;;;;;2.42;0.50;;;16.10;99.90;;;;;;10519510;28;20106;-67
2021/08/06 22:30:01;;;;;;;1.67;0.50;;;16.00;99.90;;;;;;10527675;28;20571;-67
2021/08/06 22:35:03;;;;;;;2.85;0.95;;;16.00;99.90;;;;;;10529987;28;20096;-67
2021/08/06 22:40:05;;;;;;;3.90;0.85;;;15.90;99.90;;;;;;10519211;28;20371;-67
2021/08/06 22:45:08;;;;;;;3.38;0.80;;;15.80;99.90;;;;;;10521689;28;20124;-67
2021/08/06 22:50:10;;;;;;;2.22;0.70;;;15.70;99.90;;;;;;10509657;28;20045;-67
2021/08/06 22:55:12;;;;;;;1.13;0.60;;;15.60;99.90;;;;;;10521509;28;20052;-67
2021/08/06 23:00:14;;;;;;;4.85;0.50;;;15.60;99.90;;;;;;10523024;28;20047;-67
2021/08/06 23:05:16;;;;;;;2.75;0.95;;;15.50;99.90;;;;;;10521908;28;20455;-67
2021/08/06 23:10:17;;;;;;;3.67;0.47;;;15.50;99.90;;;;;;10524102;28;20629;-67
2021/08/06 23:15:20;;;;;;;1.42;0.63;;;15.50;99.90;;;;;;10514234;28;20063;-67
2021/08/06 23:20:21;;;;;;;1.65;0.60;;;15.40;99.90;;;;;;10528297;28;20056;-67
2021/08/06 23:25:23;;;;;;;6.05;0.77;;;15.40;99.90;;;;;;10529836;28;20076;-67
2021/08/06 23:30:25;;;;;;;2.72;0.40;;;15.30;99.90;;;;;;10527464;28;20113;-67
2021/08/06 23:35:27;;;;;;;5.32;0.63;;;15.30;99.90;;;;;;10527337;28;20051;-67
2021/08/06 23:40:29;;;;;;;4.53;0.70;;;15.20;99.90;;;;;;10533839;28;20071;-67
2021/08/06 23:45:30;;;;;;;2.22;0.80;;;15.10;99.90;;;;;;10532714;28;20478;-67
2021/08/06 23:50:32;;;;;;;3.92;1.88;;;15.10;99.90;;;;;;10522273;28;20097;-67
2021/08/06 23:55:34;;;;;;;4.75;1.85;;;14.90;99.90;;;;;;10533684;28;20146;-67
